createdAt,value
2019-04-27T00:01:23.364Z,10.50
2019-04-27T00:04:06.643Z,10.40
2019-04-27T00:06:43.074Z,10.40
2019-04-27T00:09:23.309Z,10.40
2019-04-27T00:12:05.666Z,10.40
2019-04-27T00:14:35.702Z,10.40
2019-04-27T00:17:44.920Z,10.30
2019-04-27T00:20:21.614Z,10.40
2019-04-27T00:22:57.735Z,10.40
2019-04-27T00:25:27.550Z,10.40
2019-04-27T00:27:57.358Z,10.40
2019-04-27T00:30:27.076Z,10.40
2019-04-27T00:32:56.722Z,10.30
2019-04-27T00:35:33.469Z,10.30
2019-04-27T00:38:28.280Z,10.30
2019-04-27T00:41:03.001Z,10.30
2019-04-27T00:43:32.965Z,10.30
2019-04-27T00:46:04.051Z,10.30
2019-04-27T00:48:33.917Z,10.30
2019-04-27T00:51:04.941Z,10.30
2019-04-27T00:53:34.602Z,10.30
2019-04-27T00:56:17.857Z,10.20
2019-04-27T00:59:03.494Z,10.20
2019-04-27T01:01:37.903Z,10.20
2019-04-27T01:04:13.608Z,10.20
2019-04-27T01:06:43.806Z,10.20
2019-04-27T01:09:14.550Z,10.20
2019-04-27T01:11:44.350Z,10.20
2019-04-27T01:14:15.034Z,10.20
2019-04-27T01:16:44.692Z,10.10
2019-04-27T01:19:14.332Z,10.10
2019-04-27T01:21:44.060Z,10.10
2019-04-27T01:24:13.777Z,10.10
2019-04-27T01:27:02.718Z,10.10
2019-04-27T01:29:33.077Z,10.10
2019-04-27T01:32:03.458Z,10.10
2019-04-27T01:34:33.175Z,10.10
2019-04-27T01:37:02.853Z,10.10
2019-04-27T01:39:32.698Z,10.10
2019-04-27T01:42:02.362Z,10.10
2019-04-27T01:44:32.056Z,10.00
2019-04-27T01:47:01.769Z,10.00
2019-04-27T01:49:31.472Z,10.00
2019-04-27T01:52:01.279Z,10.00
2019-04-27T01:54:30.981Z,10.00
2019-04-27T01:57:00.956Z,10.00
2019-04-27T01:59:30.730Z,10.00
2019-04-27T02:02:10.611Z,10.00
2019-04-27T02:04:59.394Z,10.00
2019-04-27T02:07:30.052Z,10.00
2019-04-27T02:10:00.010Z,10.00
2019-04-27T02:12:31.507Z,10.00
2019-04-27T02:15:01.282Z,10.00
2019-04-27T02:17:31.155Z,10.00
2019-04-27T02:20:00.911Z,10.00
2019-04-27T02:22:31.154Z,10.00
2019-04-27T02:25:00.960Z,10.00
2019-04-27T02:27:32.498Z,10.00
2019-04-27T02:30:20.753Z,10.00
2019-04-27T02:33:12.361Z,10.00
2019-04-27T02:35:41.992Z,10.00
2019-04-27T02:38:12.259Z,10.00
2019-04-27T02:41:10.599Z,10.00
2019-04-27T02:44:01.749Z,10.00
2019-04-27T02:46:31.779Z,9.90
2019-04-27T02:49:06.421Z,9.90
2019-04-27T02:51:42.509Z,9.80
2019-04-27T02:54:12.703Z,9.80
2019-04-27T02:56:42.619Z,9.70
2019-04-27T02:59:12.342Z,9.70
2019-04-27T03:01:53.918Z,9.60
2019-04-27T03:04:23.644Z,9.70
2019-04-27T03:06:53.371Z,9.60
2019-04-27T03:09:23.039Z,9.60
2019-04-27T03:11:52.775Z,9.60
2019-04-27T03:14:47.144Z,9.60
2019-04-27T03:17:49.436Z,9.60
2019-04-27T03:20:40.289Z,9.60
2019-04-27T03:23:10.802Z,9.60
2019-04-27T03:25:52.686Z,9.60
2019-04-27T03:28:22.498Z,9.70
2019-04-27T03:30:52.827Z,9.70
2019-04-27T03:33:22.933Z,9.70
2019-04-27T03:35:53.225Z,9.70
2019-04-27T03:38:23.588Z,9.70
2019-04-27T03:40:53.436Z,9.70
2019-04-27T03:43:24.832Z,9.60
2019-04-27T03:45:54.864Z,9.60
2019-04-27T03:48:24.537Z,9.60
2019-04-27T03:51:12.552Z,9.60
2019-04-27T03:53:49.581Z,9.70
2019-04-27T03:56:39.374Z,9.70
2019-04-27T03:59:16.058Z,9.70
2019-04-27T04:01:45.818Z,9.70
2019-04-27T04:04:15.587Z,9.60
2019-04-27T04:06:45.302Z,9.60
2019-04-27T04:09:15.098Z,9.60
2019-04-27T04:11:59.158Z,9.60
2019-04-27T04:14:30.201Z,9.60
2019-04-27T04:17:03.227Z,9.50
2019-04-27T04:19:47.821Z,9.60
2019-04-27T04:22:05.981Z,9.60
2019-04-27T04:24:35.629Z,9.60
2019-04-27T04:27:05.415Z,9.50
2019-04-27T04:29:35.151Z,9.50
2019-04-27T04:32:04.955Z,9.50
2019-04-27T04:34:34.816Z,9.50
2019-04-27T04:37:05.030Z,9.50
2019-04-27T04:39:34.777Z,9.50
2019-04-27T04:42:14.994Z,9.50
2019-04-27T04:45:10.716Z,9.50
2019-04-27T04:47:44.862Z,9.50
2019-04-27T04:50:15.493Z,9.50
2019-04-27T04:52:45.464Z,9.50
2019-04-27T04:55:15.235Z,9.50
2019-04-27T04:57:45.012Z,9.50
2019-04-27T05:00:14.994Z,9.50
2019-04-27T05:02:44.693Z,9.50
2019-04-27T05:05:14.604Z,9.60
2019-04-27T05:07:44.334Z,9.60
2019-04-27T05:10:14.097Z,9.60
2019-04-27T05:12:43.764Z,9.60
2019-04-27T05:15:14.446Z,9.60
2019-04-27T05:17:44.091Z,9.70
2019-04-27T05:20:41.919Z,9.70
2019-04-27T05:23:11.597Z,9.70
2019-04-27T05:25:41.288Z,9.70
2019-04-27T05:28:10.980Z,9.70
2019-04-27T05:30:40.674Z,9.80
2019-04-27T05:33:10.402Z,9.80
2019-04-27T05:35:41.054Z,9.80
2019-04-27T05:38:13.388Z,9.80
2019-04-27T05:40:42.371Z,9.90
2019-04-27T05:43:13.812Z,9.90
2019-04-27T05:46:20.556Z,10.00
2019-04-27T05:48:50.238Z,10.00
2019-04-27T05:51:20.048Z,10.10
2019-04-27T05:53:49.815Z,10.10
2019-04-27T05:56:21.527Z,10.20
2019-04-27T05:58:51.343Z,10.20
2019-04-27T06:01:21.138Z,10.30
2019-04-27T06:03:50.809Z,10.40
2019-04-27T06:06:20.589Z,10.40
2019-04-27T06:08:50.302Z,10.50
2019-04-27T06:11:20.014Z,10.50
2019-04-27T06:13:49.775Z,10.60
2019-04-27T06:16:19.594Z,10.70
2019-04-27T06:18:49.447Z,10.80
2019-04-27T06:21:19.668Z,10.90
2019-04-27T06:23:49.461Z,11.00
2019-04-27T06:26:20.156Z,11.10
2019-04-27T06:28:51.700Z,11.20
2019-04-27T06:31:22.378Z,11.30
2019-04-27T06:33:52.138Z,11.30
2019-04-27T06:36:21.818Z,11.40
2019-04-27T06:38:51.486Z,11.50
2019-04-27T06:41:21.226Z,11.50
2019-04-27T06:43:50.922Z,11.70
2019-04-27T06:46:20.662Z,11.80
2019-04-27T06:48:50.325Z,11.90
2019-04-27T06:51:20.079Z,11.90
2019-04-27T06:53:50.004Z,12.00
2019-04-27T06:56:19.821Z,12.10
2019-04-27T06:58:50.497Z,12.20
2019-04-27T07:01:20.235Z,12.30
2019-04-27T07:03:49.934Z,12.40
2019-04-27T07:06:19.895Z,12.50
2019-04-27T07:08:51.050Z,12.60
2019-04-27T07:11:20.757Z,12.70
2019-04-27T07:13:50.847Z,12.80
2019-04-27T07:16:20.736Z,12.90
2019-04-27T07:18:50.526Z,13.00
2019-04-27T07:21:24.734Z,13.10
2019-04-27T07:23:59.484Z,13.20
2019-04-27T07:26:30.370Z,13.30
2019-04-27T07:29:00.333Z,13.40
2019-04-27T07:31:31.835Z,13.50
2019-04-27T07:34:01.516Z,13.60
2019-04-27T07:36:31.517Z,13.70
2019-04-27T07:39:01.220Z,13.80
2019-04-27T07:41:32.818Z,13.90
2019-04-27T07:44:08.417Z,13.90
2019-04-27T07:46:39.266Z,14.00
2019-04-27T07:49:09.377Z,14.10
2019-04-27T07:51:39.371Z,14.20
2019-04-27T07:54:09.189Z,14.20
2019-04-27T07:56:39.078Z,14.30
2019-04-27T07:59:09.196Z,14.40
2019-04-27T08:01:39.391Z,14.50
2019-04-27T08:04:09.295Z,14.50
2019-04-27T08:06:39.149Z,14.50
2019-04-27T08:09:09.480Z,14.60
2019-04-27T08:11:39.441Z,14.80
2019-04-27T08:14:09.161Z,14.90
2019-04-27T08:16:38.990Z,15.00
2019-04-27T08:19:09.928Z,15.20
2019-04-27T08:21:44.445Z,15.40
2019-04-27T08:24:11.365Z,15.60
2019-04-27T08:26:49.857Z,15.70
2019-04-27T08:29:37.339Z,15.80
2019-04-27T08:32:11.859Z,15.90
2019-04-27T08:34:41.812Z,16.00
2019-04-27T08:37:11.771Z,15.90
2019-04-27T08:39:41.927Z,16.00
2019-04-27T08:42:11.743Z,16.00
2019-04-27T08:44:41.436Z,16.10
2019-04-27T08:47:11.350Z,16.10
2019-04-27T08:49:41.015Z,16.20
2019-04-27T08:52:10.748Z,16.30
2019-04-27T08:54:40.442Z,16.30
2019-04-27T08:57:10.166Z,16.30
2019-04-27T08:59:39.936Z,16.40
2019-04-27T09:02:10.835Z,16.40
2019-04-27T09:04:40.540Z,16.30
2019-04-27T09:07:29.460Z,16.30
2019-04-27T09:10:05.297Z,16.10
2019-04-27T09:12:53.670Z,16.20
2019-04-27T09:15:31.661Z,16.30
2019-04-27T09:18:01.482Z,16.40
2019-04-27T09:20:40.538Z,16.40
2019-04-27T09:23:10.387Z,16.30
2019-04-27T09:25:40.232Z,16.40
2019-04-27T09:28:10.962Z,16.50
2019-04-27T09:30:41.132Z,16.60
2019-04-27T09:33:10.811Z,16.70
2019-04-27T09:35:40.544Z,16.70
2019-04-27T09:38:10.244Z,16.80
2019-04-27T09:40:40.038Z,16.80
2019-04-27T09:43:09.747Z,16.70
2019-04-27T09:45:39.485Z,16.70
2019-04-27T09:48:09.168Z,16.80
2019-04-27T09:50:38.889Z,16.80
2019-04-27T09:53:08.885Z,17.00
2019-04-27T09:55:38.618Z,17.00
2019-04-27T09:58:08.400Z,17.00
2019-04-27T10:00:38.037Z,17.10
2019-04-27T10:03:07.775Z,17.10
2019-04-27T10:05:37.557Z,17.10
2019-04-27T10:08:07.837Z,17.10
2019-04-27T10:10:37.521Z,17.20
2019-04-27T10:13:07.271Z,17.20
2019-04-27T10:15:37.059Z,17.30
2019-04-27T10:18:07.141Z,17.50
2019-04-27T10:20:40.531Z,17.70
2019-04-27T10:23:08.625Z,17.90
2019-04-27T10:25:38.340Z,18.00
2019-04-27T10:28:08.238Z,18.20
2019-04-27T10:30:38.622Z,18.40
2019-04-27T10:33:08.372Z,18.80
2019-04-27T10:35:38.076Z,18.90
2019-04-27T10:38:07.910Z,18.90
2019-04-27T10:40:37.606Z,19.10
2019-04-27T10:43:07.401Z,19.10
2019-04-27T10:45:37.878Z,18.90
2019-04-27T10:48:07.805Z,18.90
2019-04-27T10:50:37.759Z,19.10
2019-04-27T10:53:08.402Z,19.20
2019-04-27T10:55:38.151Z,19.30
2019-04-27T10:58:08.557Z,19.30
2019-04-27T11:00:43.587Z,19.30
2019-04-27T11:03:16.602Z,19.20
2019-04-27T11:06:05.921Z,19.00
2019-04-27T11:08:35.743Z,19.00
2019-04-27T11:11:05.469Z,19.10
2019-04-27T11:13:36.217Z,19.30
2019-04-27T11:16:06.593Z,19.30
2019-04-27T11:18:37.255Z,19.40
2019-04-27T11:21:07.199Z,19.40
2019-04-27T11:23:36.897Z,19.40
2019-04-27T11:26:07.645Z,19.30
2019-04-27T11:28:37.436Z,19.20
2019-04-27T11:31:07.862Z,19.20
2019-04-27T11:33:37.574Z,19.30
2019-04-27T11:36:25.584Z,19.30
2019-04-27T11:38:56.586Z,19.30
2019-04-27T11:41:26.406Z,19.20
2019-04-27T11:43:56.592Z,19.30
2019-04-27T11:46:26.751Z,19.40
2019-04-27T11:48:58.349Z,19.50
2019-04-27T11:51:28.313Z,19.70
2019-04-27T11:53:59.346Z,19.90
2019-04-27T11:56:29.027Z,20.10
2019-04-27T11:58:59.824Z,20.20
2019-04-27T12:01:29.576Z,20.30
2019-04-27T12:03:59.304Z,20.40
2019-04-27T12:06:29.015Z,20.50
2019-04-27T12:08:58.789Z,20.60
2019-04-27T12:11:28.500Z,20.60
2019-04-27T12:13:58.389Z,20.60
2019-04-27T12:16:28.143Z,20.60
2019-04-27T12:18:57.922Z,20.70
2019-04-27T12:21:27.642Z,20.60
2019-04-27T12:23:57.486Z,20.70
2019-04-27T12:26:32.734Z,20.80
2019-04-27T12:29:03.763Z,21.00
2019-04-27T12:31:39.060Z,21.00
2019-04-27T12:34:10.243Z,21.10
2019-04-27T12:36:39.954Z,21.20
2019-04-27T12:39:12.118Z,21.20
2019-04-27T12:41:42.382Z,21.20
2019-04-27T12:44:13.360Z,21.20
2019-04-27T12:46:43.158Z,21.20
2019-04-27T12:49:12.922Z,21.20
2019-04-27T12:51:45.610Z,21.20
2019-04-27T12:54:33.336Z,21.10
2019-04-27T12:57:21.066Z,21.10
2019-04-27T12:59:59.372Z,21.10
2019-04-27T13:02:31.508Z,21.10
2019-04-27T13:05:01.361Z,21.10
2019-04-27T13:07:31.113Z,21.00
2019-04-27T13:10:01.215Z,21.00
2019-04-27T13:12:31.008Z,21.00
2019-04-27T13:15:00.978Z,20.90
2019-04-27T13:17:30.883Z,20.70
2019-04-27T13:20:00.608Z,20.70
2019-04-27T13:22:31.548Z,20.60
2019-04-27T13:25:01.222Z,20.20
2019-04-27T13:27:32.071Z,20.00
2019-04-27T13:30:04.694Z,19.80
2019-04-27T13:32:33.437Z,19.50
2019-04-27T13:35:03.233Z,19.50
2019-04-27T13:37:36.963Z,19.40
2019-04-27T13:40:09.707Z,19.50
2019-04-27T13:42:48.072Z,19.50
2019-04-27T13:45:26.716Z,19.60
2019-04-27T13:48:27.939Z,19.50
2019-04-27T13:51:00.070Z,19.50
2019-04-27T13:53:29.816Z,19.20
2019-04-27T13:56:02.145Z,19.00
2019-04-27T13:58:32.061Z,18.90
2019-04-27T14:01:01.795Z,18.90
2019-04-27T14:03:33.679Z,19.00
2019-04-27T14:06:03.648Z,19.00
2019-04-27T14:08:33.613Z,18.90
2019-04-27T14:11:03.465Z,18.90
2019-04-27T14:13:33.222Z,18.90
2019-04-27T14:16:02.947Z,18.90
2019-04-27T14:18:32.813Z,18.90
2019-04-27T14:21:02.586Z,18.90
2019-04-27T14:23:33.299Z,19.00
2019-04-27T14:26:03.289Z,18.80
2019-04-27T14:28:33.072Z,18.70
2019-04-27T14:31:03.058Z,18.70
2019-04-27T14:33:32.790Z,18.70
2019-04-27T14:36:02.588Z,18.70
2019-04-27T14:38:32.402Z,18.80
2019-04-27T14:41:02.145Z,18.90
2019-04-27T14:43:32.018Z,18.90
2019-04-27T14:46:01.671Z,18.90
2019-04-27T14:48:31.730Z,18.60
2019-04-27T14:51:01.583Z,18.40
2019-04-27T14:53:31.502Z,18.40
2019-04-27T14:56:01.312Z,18.30
2019-04-27T14:58:31.125Z,18.30
2019-04-27T15:01:01.095Z,18.40
2019-04-27T15:03:31.203Z,18.40
2019-04-27T15:06:02.001Z,18.50
2019-04-27T15:08:34.028Z,18.50
2019-04-27T15:11:04.186Z,18.60
2019-04-27T15:13:37.841Z,18.60
2019-04-27T15:16:08.033Z,18.50
2019-04-27T15:18:43.773Z,18.40
2019-04-27T15:21:13.642Z,18.30
2019-04-27T15:23:43.514Z,18.30
2019-04-27T15:26:15.419Z,18.20
2019-04-27T15:28:49.542Z,18.10
2019-04-27T15:31:27.113Z,18.00
2019-04-27T15:34:04.557Z,17.90
2019-04-27T15:36:42.134Z,17.80
2019-04-27T15:39:22.585Z,17.70
2019-04-27T15:41:54.142Z,17.60
2019-04-27T15:44:23.954Z,17.40
2019-04-27T15:46:53.929Z,17.10
2019-04-27T15:49:23.631Z,17.10
2019-04-27T15:51:54.686Z,16.90
2019-04-27T15:54:29.071Z,16.80
2019-04-27T15:56:58.030Z,16.60
2019-04-27T15:59:30.874Z,16.60
2019-04-27T16:01:59.477Z,16.50
2019-04-27T16:04:29.140Z,16.40
2019-04-27T16:07:00.523Z,16.30
2019-04-27T16:09:30.482Z,16.20
2019-04-27T16:12:09.999Z,16.10
2019-04-27T16:14:31.664Z,15.90
2019-04-27T16:17:02.927Z,15.50
2019-04-27T16:19:33.026Z,15.00
2019-04-27T16:22:04.205Z,14.60
2019-04-27T16:24:35.019Z,14.40
2019-04-27T16:27:05.404Z,14.20
2019-04-27T16:29:35.066Z,14.00
2019-04-27T16:32:09.599Z,14.00
2019-04-27T16:34:37.883Z,14.00
2019-04-27T16:37:09.811Z,14.00
2019-04-27T16:39:45.491Z,14.00
2019-04-27T16:42:14.283Z,14.00
2019-04-27T16:44:44.256Z,14.10
2019-04-27T16:47:18.886Z,14.10
2019-04-27T16:49:48.391Z,14.00
2019-04-27T16:52:19.272Z,14.00
2019-04-27T16:54:57.137Z,14.10
2019-04-27T16:57:22.743Z,14.30
2019-04-27T16:59:57.512Z,14.40
2019-04-27T17:02:25.346Z,14.60
2019-04-27T17:04:55.781Z,14.60
2019-04-27T17:07:30.198Z,14.70
2019-04-27T17:09:59.520Z,14.70
2019-04-27T17:12:33.159Z,14.70
2019-04-27T17:15:18.956Z,14.50
2019-04-27T17:18:13.966Z,14.50
2019-04-27T17:20:59.341Z,14.40
2019-04-27T17:23:31.241Z,14.50
2019-04-27T17:26:04.414Z,14.40
2019-04-27T17:28:42.682Z,14.40
2019-04-27T17:31:19.767Z,14.30
2019-04-27T17:33:50.528Z,14.20
2019-04-27T17:36:20.427Z,14.20
2019-04-27T17:38:51.109Z,14.00
2019-04-27T17:41:21.307Z,14.00
2019-04-27T17:43:51.176Z,13.90
2019-04-27T17:46:22.078Z,13.90
2019-04-27T17:48:52.192Z,13.80
2019-04-27T17:51:22.139Z,13.70
2019-04-27T17:53:52.123Z,13.60
2019-04-27T17:56:33.295Z,13.60
2019-04-27T17:58:54.643Z,13.50
2019-04-27T18:01:29.302Z,13.50
2019-04-27T18:04:00.037Z,13.50
2019-04-27T18:06:29.418Z,13.50
2019-04-27T18:09:00.531Z,13.50
2019-04-27T18:11:32.952Z,13.40
2019-04-27T18:14:02.969Z,13.40
2019-04-27T18:16:34.421Z,13.30
2019-04-27T18:19:25.274Z,13.30
2019-04-27T18:22:00.886Z,13.20
2019-04-27T18:24:49.318Z,13.20
2019-04-27T18:27:26.906Z,13.10
2019-04-27T18:30:10.445Z,13.00
2019-04-27T18:32:40.477Z,13.00
2019-04-27T18:35:11.301Z,13.00
2019-04-27T18:37:42.049Z,13.00
2019-04-27T18:40:12.046Z,13.00
2019-04-27T18:42:42.165Z,13.00
2019-04-27T18:45:11.998Z,13.00
2019-04-27T18:47:43.498Z,13.10
2019-04-27T18:50:28.219Z,13.10
2019-04-27T18:53:03.841Z,13.10
2019-04-27T18:55:33.762Z,13.10
2019-04-27T18:58:03.982Z,13.00
2019-04-27T19:00:33.781Z,13.00
2019-04-27T19:03:03.739Z,13.00
2019-04-27T19:05:40.033Z,13.00
2019-04-27T19:08:06.125Z,13.00
2019-04-27T19:10:35.845Z,13.00
2019-04-27T19:13:06.149Z,13.00
2019-04-27T19:15:36.134Z,13.00
2019-04-27T19:18:06.161Z,13.00
2019-04-27T19:20:35.893Z,13.00
2019-04-27T19:23:05.747Z,13.00
2019-04-27T19:26:03.727Z,13.00
2019-04-27T19:29:08.607Z,13.00
2019-04-27T19:31:42.655Z,12.90
2019-04-27T19:34:12.415Z,12.90
2019-04-27T19:36:42.189Z,12.80
2019-04-27T19:39:14.023Z,12.80
2019-04-27T19:41:56.917Z,12.80
2019-04-27T19:44:18.829Z,12.70
2019-04-27T19:46:49.292Z,12.60
2019-04-27T19:49:20.258Z,12.60
2019-04-27T19:51:49.998Z,12.60
2019-04-27T19:54:19.789Z,12.50
2019-04-27T19:56:50.002Z,12.40
2019-04-27T19:59:24.679Z,12.40
2019-04-27T20:01:58.306Z,12.30
2019-04-27T20:04:37.085Z,12.30
2019-04-27T20:07:10.351Z,12.30
2019-04-27T20:10:03.446Z,12.20
2019-04-27T20:12:33.265Z,12.20
2019-04-27T20:15:03.176Z,12.20
2019-04-27T20:17:34.099Z,12.20
2019-04-27T20:20:05.293Z,12.20
2019-04-27T20:22:34.988Z,12.20
2019-04-27T20:25:05.622Z,12.20
2019-04-27T20:27:46.021Z,12.10
2019-04-27T20:30:08.544Z,12.10
2019-04-27T20:32:38.300Z,12.10
2019-04-27T20:35:08.273Z,12.10
2019-04-27T20:37:38.058Z,12.10
2019-04-27T20:40:09.086Z,12.10
2019-04-27T20:42:38.719Z,12.10
2019-04-27T20:45:09.282Z,12.00
2019-04-27T20:47:39.058Z,12.00
2019-04-27T20:50:09.482Z,11.90
2019-04-27T20:52:58.424Z,11.90
2019-04-27T20:55:28.564Z,11.90
2019-04-27T20:58:02.357Z,11.90
2019-04-27T21:00:31.805Z,11.80
2019-04-27T21:03:11.773Z,11.80
2019-04-27T21:05:51.111Z,11.80
2019-04-27T21:08:21.855Z,11.70
2019-04-27T21:10:51.693Z,11.70
2019-04-27T21:13:21.453Z,11.60
2019-04-27T21:15:51.255Z,11.70
2019-04-27T21:18:21.702Z,11.70
2019-04-27T21:20:51.797Z,11.70
2019-04-27T21:23:21.618Z,11.60
2019-04-27T21:25:53.545Z,11.60
2019-04-27T21:28:22.687Z,11.50
2019-04-27T21:30:52.367Z,11.40
2019-04-27T21:33:22.197Z,11.30
2019-04-27T21:35:51.875Z,11.30
2019-04-27T21:38:21.601Z,11.30
2019-04-27T21:40:52.336Z,11.20
2019-04-27T21:43:22.043Z,11.20
2019-04-27T21:45:51.851Z,11.30
2019-04-27T21:48:21.561Z,11.30
2019-04-27T21:50:51.752Z,11.30
2019-04-27T21:53:31.317Z,11.30
2019-04-27T21:56:02.605Z,11.30
2019-04-27T21:58:33.344Z,11.30
2019-04-27T22:01:24.071Z,11.30
2019-04-27T22:03:53.860Z,11.20
2019-04-27T22:06:23.542Z,11.10
2019-04-27T22:08:53.358Z,11.10
2019-04-27T22:11:23.119Z,11.00
2019-04-27T22:13:52.858Z,11.00
2019-04-27T22:16:22.644Z,11.00
2019-04-27T22:18:52.413Z,11.00
2019-04-27T22:21:22.119Z,11.00
2019-04-27T22:24:11.181Z,11.00
2019-04-27T22:26:41.473Z,11.00
2019-04-27T22:29:12.624Z,11.00
2019-04-27T22:31:42.389Z,11.00
2019-04-27T22:34:12.096Z,11.00
2019-04-27T22:36:42.803Z,11.00
2019-04-27T22:39:26.884Z,10.90
2019-04-27T22:42:16.822Z,10.90
2019-04-27T22:44:51.523Z,10.90
2019-04-27T22:47:22.175Z,10.90
2019-04-27T22:49:51.878Z,10.90
2019-04-27T22:52:21.908Z,10.90
2019-04-27T22:54:51.633Z,10.90
2019-04-27T22:57:27.153Z,10.90
2019-04-27T23:00:18.997Z,10.90
2019-04-27T23:02:53.509Z,10.90
2019-04-27T23:05:23.315Z,10.80
2019-04-27T23:07:53.118Z,10.80
2019-04-27T23:10:25.424Z,10.80
2019-04-27T23:12:54.436Z,10.80
2019-04-27T23:15:26.490Z,10.70
2019-04-27T23:17:57.607Z,10.70
2019-04-27T23:20:27.538Z,10.60
2019-04-27T23:22:57.413Z,10.70
2019-04-27T23:25:27.223Z,10.60
2019-04-27T23:27:56.945Z,10.60
2019-04-27T23:30:37.373Z,10.60
2019-04-27T23:33:07.078Z,10.60
2019-04-27T23:35:36.801Z,10.60
2019-04-27T23:38:16.831Z,10.60
2019-04-27T23:40:38.946Z,10.60
2019-04-27T23:43:08.625Z,10.60
2019-04-27T23:45:38.351Z,10.60
2019-04-27T23:48:08.064Z,10.60
2019-04-27T23:50:39.774Z,10.60
2019-04-27T23:53:18.115Z,10.60
2019-04-27T23:55:47.910Z,10.60
2019-04-27T23:58:17.758Z,10.60
